createdAt,value
2022-12-23T00:01:02.208Z,8.90
2022-12-23T00:03:29.895Z,8.80
2022-12-23T00:05:57.936Z,8.80
2022-12-23T00:08:25.352Z,8.80
2022-12-23T00:10:52.673Z,8.70
2022-12-23T00:13:38.345Z,8.70
2022-12-23T00:16:12.691Z,8.70
2022-12-23T00:18:40.172Z,8.60
2022-12-23T00:21:10.370Z,8.70
2022-12-23T00:23:39.255Z,8.60
2022-12-23T00:26:06.621Z,8.50
2022-12-23T00:28:33.907Z,8.50
2022-12-23T00:31:06.100Z,8.30
2022-12-23T00:33:34.956Z,8.30
2022-12-23T00:36:02.251Z,8.40
2022-12-23T00:38:47.858Z,8.40
2022-12-23T00:41:35.446Z,8.40
2022-12-23T00:44:03.397Z,8.40
2022-12-23T00:46:30.774Z,8.20
2022-12-23T00:49:16.340Z,8.10
2022-12-23T00:51:43.547Z,7.90
2022-12-23T00:54:10.794Z,7.80
2022-12-23T00:56:38.005Z,7.70
2022-12-23T00:59:05.198Z,7.70
2022-12-23T01:01:51.342Z,7.70
2022-12-23T01:04:37.134Z,7.60
2022-12-23T01:07:04.551Z,7.70
2022-12-23T01:09:31.833Z,7.70
2022-12-23T01:11:59.101Z,7.70
2022-12-23T01:14:26.387Z,7.80
2022-12-23T01:16:53.585Z,7.70
2022-12-23T01:19:20.813Z,7.80
2022-12-23T01:21:48.076Z,7.80
2022-12-23T01:24:15.289Z,7.80
2022-12-23T01:26:42.535Z,7.80
2022-12-23T01:29:09.720Z,7.90
2022-12-23T01:31:36.990Z,7.90
2022-12-23T01:34:04.246Z,7.90
2022-12-23T01:36:31.632Z,8.00
2022-12-23T01:38:58.854Z,8.00
2022-12-23T01:41:46.759Z,8.00
2022-12-23T01:44:49.822Z,8.00
2022-12-23T01:47:18.760Z,8.10
2022-12-23T01:49:45.943Z,8.00
2022-12-23T01:52:13.131Z,8.00
2022-12-23T01:54:40.427Z,8.00
2022-12-23T01:57:07.636Z,8.10
2022-12-23T01:59:53.305Z,8.10
2022-12-23T02:02:38.918Z,8.10
2022-12-23T02:05:06.352Z,8.10
2022-12-23T02:07:52.406Z,8.10
2022-12-23T02:10:19.862Z,8.10
2022-12-23T02:12:56.239Z,8.00
2022-12-23T02:15:53.020Z,8.10
2022-12-23T02:19:04.876Z,8.00
2022-12-23T02:21:38.215Z,8.00
2022-12-23T02:24:29.960Z,8.00
2022-12-23T02:27:22.697Z,8.10
2022-12-23T02:30:27.659Z,8.20
2022-12-23T02:33:09.946Z,8.30
2022-12-23T02:35:39.953Z,8.40
2022-12-23T02:38:10.942Z,8.60
2022-12-23T02:40:43.345Z,8.70
2022-12-23T02:43:15.446Z,8.80
2022-12-23T02:45:53.907Z,8.80
2022-12-23T02:48:45.853Z,8.90
2022-12-23T02:51:14.461Z,8.90
2022-12-23T02:53:51.212Z,9.00
2022-12-23T02:56:18.883Z,9.00
2022-12-23T02:59:06.852Z,9.10
2022-12-23T03:01:34.248Z,9.20
2022-12-23T03:04:01.635Z,9.30
2022-12-23T03:06:32.029Z,9.30
2022-12-23T03:08:59.825Z,9.30
2022-12-23T03:11:50.328Z,9.30
2022-12-23T03:14:22.958Z,9.40
2022-12-23T03:17:17.880Z,9.40
2022-12-23T03:20:00.297Z,9.40
2022-12-23T03:22:46.098Z,9.40
2022-12-23T03:25:25.901Z,9.40
2022-12-23T03:27:59.496Z,9.40
2022-12-23T03:30:26.685Z,9.50
2022-12-23T03:32:55.830Z,9.60
2022-12-23T03:35:29.043Z,9.60
2022-12-23T03:37:56.224Z,9.60
2022-12-23T03:40:28.271Z,9.60
2022-12-23T03:43:01.283Z,9.70
2022-12-23T03:45:39.922Z,9.70
2022-12-23T03:48:35.418Z,9.70
2022-12-23T03:51:11.510Z,9.70
2022-12-23T03:53:42.143Z,9.80
2022-12-23T03:56:14.653Z,9.80
2022-12-23T03:58:47.879Z,9.80
2022-12-23T04:01:46.070Z,9.80
2022-12-23T04:04:21.146Z,9.90
2022-12-23T04:07:13.684Z,9.90
2022-12-23T04:09:40.931Z,9.90
2022-12-23T04:12:08.240Z,9.90
2022-12-23T04:14:35.817Z,10.00
2022-12-23T04:17:03.017Z,9.90
2022-12-23T04:19:30.191Z,10.00
2022-12-23T04:21:57.888Z,9.90
2022-12-23T04:24:25.089Z,9.90
2022-12-23T04:26:52.371Z,9.90
2022-12-23T04:29:19.575Z,9.90
2022-12-23T04:31:46.854Z,9.90
2022-12-23T04:34:14.117Z,9.90
2022-12-23T04:36:41.290Z,9.90
2022-12-23T04:39:09.482Z,9.90
2022-12-23T04:41:36.692Z,9.90
2022-12-23T04:44:03.992Z,9.90
2022-12-23T04:46:31.211Z,10.00
2022-12-23T04:48:58.479Z,10.00
2022-12-23T04:51:25.693Z,10.00
2022-12-23T04:53:52.907Z,10.00
2022-12-23T04:56:20.097Z,10.00
2022-12-23T04:58:47.343Z,10.00
2022-12-23T05:01:14.626Z,10.10
2022-12-23T05:03:41.885Z,10.10
2022-12-23T05:06:09.140Z,10.10
2022-12-23T05:08:36.456Z,10.20
2022-12-23T05:11:03.819Z,10.20
2022-12-23T05:13:31.069Z,10.20
2022-12-23T05:15:58.326Z,10.20
2022-12-23T05:18:25.608Z,10.30
2022-12-23T05:20:52.914Z,10.20
2022-12-23T05:23:20.105Z,10.10
2022-12-23T05:25:51.903Z,10.00
2022-12-23T05:28:19.514Z,10.00
2022-12-23T05:30:46.699Z,9.90
2022-12-23T05:33:14.289Z,9.90
2022-12-23T05:35:41.540Z,10.00
2022-12-23T05:38:08.774Z,9.90
2022-12-23T05:40:36.027Z,9.90
2022-12-23T05:43:03.404Z,9.90
2022-12-23T05:45:30.620Z,9.90
2022-12-23T05:47:57.918Z,9.90
2022-12-23T05:50:25.092Z,9.90
2022-12-23T05:52:52.377Z,9.90
2022-12-23T05:55:19.553Z,9.90
2022-12-23T05:57:46.750Z,9.90
2022-12-23T06:00:15.146Z,9.90
2022-12-23T06:02:43.667Z,10.00
2022-12-23T06:05:13.367Z,10.10
2022-12-23T06:07:40.588Z,10.10
2022-12-23T06:10:08.898Z,10.20
2022-12-23T06:12:36.232Z,10.20
2022-12-23T06:15:04.342Z,10.30
2022-12-23T06:17:31.645Z,10.30
2022-12-23T06:19:58.858Z,10.30
2022-12-23T06:22:26.240Z,10.40
2022-12-23T06:24:53.501Z,10.30
2022-12-23T06:27:20.742Z,10.40
2022-12-23T06:29:48.135Z,10.40
2022-12-23T06:32:15.346Z,10.40
2022-12-23T06:34:42.573Z,10.40
2022-12-23T06:37:09.782Z,10.40
2022-12-23T06:39:36.976Z,10.40
2022-12-23T06:42:04.220Z,10.40
2022-12-23T06:44:31.578Z,10.40
2022-12-23T06:46:58.803Z,10.60
2022-12-23T06:49:26.278Z,10.60
2022-12-23T06:51:53.472Z,10.60
2022-12-23T06:54:20.670Z,10.60
2022-12-23T06:56:47.908Z,10.60
2022-12-23T06:59:15.163Z,10.60
2022-12-23T07:01:42.521Z,10.70
2022-12-23T07:04:10.273Z,10.70
2022-12-23T07:06:39.129Z,10.70
2022-12-23T07:09:07.263Z,10.70
2022-12-23T07:11:34.725Z,10.70
2022-12-23T07:14:01.925Z,10.70
2022-12-23T07:16:29.150Z,10.70
2022-12-23T07:18:56.455Z,10.80
2022-12-23T07:21:29.020Z,10.80
2022-12-23T07:23:57.167Z,10.80
2022-12-23T07:26:24.628Z,10.80
2022-12-23T07:28:51.860Z,10.70
2022-12-23T07:31:19.147Z,10.70
2022-12-23T07:33:46.504Z,10.70
2022-12-23T07:36:13.725Z,10.70
2022-12-23T07:38:40.916Z,10.70
2022-12-23T07:41:08.342Z,10.70
2022-12-23T07:43:35.638Z,10.70
2022-12-23T07:46:07.543Z,10.70
2022-12-23T07:48:34.889Z,10.70
2022-12-23T07:51:02.826Z,10.60
2022-12-23T07:53:30.151Z,10.70
2022-12-23T07:55:57.472Z,10.70
2022-12-23T07:58:25.017Z,10.70
2022-12-23T08:00:59.515Z,10.70
2022-12-23T08:03:26.837Z,10.70
2022-12-23T08:06:01.436Z,10.70
2022-12-23T08:08:28.631Z,10.80
2022-12-23T08:11:00.214Z,10.80
2022-12-23T08:13:27.568Z,10.80
2022-12-23T08:15:58.545Z,10.90
2022-12-23T08:18:25.947Z,10.90
2022-12-23T08:21:01.051Z,10.90
2022-12-23T08:23:28.860Z,10.90
2022-12-23T08:26:12.889Z,10.90
2022-12-23T08:28:40.640Z,11.00
2022-12-23T08:31:10.001Z,11.00
2022-12-23T08:33:38.176Z,11.00
2022-12-23T08:36:06.646Z,11.00
2022-12-23T08:38:34.092Z,10.90
2022-12-23T08:41:01.595Z,11.00
2022-12-23T08:43:35.233Z,10.90
2022-12-23T08:46:03.442Z,10.90
2022-12-23T08:48:31.100Z,10.90
2022-12-23T08:51:05.161Z,10.90
2022-12-23T08:53:33.300Z,11.00
2022-12-23T08:56:08.219Z,11.10
2022-12-23T08:58:39.941Z,11.10
2022-12-23T09:01:08.099Z,11.10
2022-12-23T09:03:35.669Z,11.10
2022-12-23T09:06:06.985Z,11.10
2022-12-23T09:08:34.277Z,11.10
2022-12-23T09:11:01.699Z,11.10
2022-12-23T09:13:35.230Z,11.10
2022-12-23T09:16:03.908Z,11.10
2022-12-23T09:18:31.301Z,11.10
2022-12-23T09:21:03.089Z,11.20
2022-12-23T09:23:30.298Z,11.20
2022-12-23T09:25:57.561Z,11.20
2022-12-23T09:28:24.880Z,11.30
2022-12-23T09:30:52.264Z,11.30
2022-12-23T09:33:19.814Z,11.30
2022-12-23T09:35:47.053Z,11.40
2022-12-23T09:38:14.225Z,11.30
2022-12-23T09:40:41.507Z,11.30
2022-12-23T09:43:17.831Z,11.30
2022-12-23T09:45:51.199Z,11.40
2022-12-23T09:48:20.710Z,11.40
2022-12-23T09:50:47.907Z,11.40
2022-12-23T09:53:20.051Z,11.40
2022-12-23T09:56:22.784Z,11.40
2022-12-23T09:59:16.281Z,11.40
2022-12-23T10:01:55.212Z,11.50
2022-12-23T10:04:29.184Z,11.50
2022-12-23T10:07:05.123Z,11.50
2022-12-23T10:09:34.468Z,11.50
2022-12-23T10:12:01.660Z,11.50
2022-12-23T10:14:30.008Z,11.60
2022-12-23T10:17:16.225Z,11.60
2022-12-23T10:19:44.495Z,11.60
2022-12-23T10:22:23.262Z,11.60
2022-12-23T10:24:50.538Z,11.70
2022-12-23T10:27:26.833Z,11.70
2022-12-23T10:29:54.054Z,11.70
2022-12-23T10:32:24.186Z,11.70
2022-12-23T10:34:53.022Z,11.70
2022-12-23T10:37:39.125Z,11.70
2022-12-23T10:40:34.045Z,11.70
2022-12-23T10:43:29.312Z,11.70
2022-12-23T10:46:21.224Z,11.60
2022-12-23T10:49:05.382Z,11.60
2022-12-23T10:51:34.455Z,11.50
2022-12-23T10:54:11.867Z,11.50
2022-12-23T10:56:39.153Z,11.40
2022-12-23T10:59:06.918Z,11.40
2022-12-23T11:01:40.807Z,11.40
2022-12-23T11:04:13.294Z,11.40
2022-12-23T11:06:43.013Z,11.40
2022-12-23T11:09:24.298Z,11.40
2022-12-23T11:11:55.530Z,11.50
2022-12-23T11:14:52.680Z,11.50
2022-12-23T11:17:33.387Z,11.50
2022-12-23T11:20:12.052Z,11.60
2022-12-23T11:22:56.352Z,11.60
2022-12-23T11:25:37.939Z,11.60
2022-12-23T11:28:16.860Z,11.60
2022-12-23T11:30:55.445Z,11.70
2022-12-23T11:33:31.393Z,11.70
2022-12-23T11:36:05.093Z,11.70
2022-12-23T11:38:32.429Z,11.80
2022-12-23T11:40:59.670Z,11.80
2022-12-23T11:43:26.928Z,11.80
2022-12-23T11:46:13.851Z,11.80
2022-12-23T11:48:41.093Z,11.80
2022-12-23T11:51:08.484Z,11.90
2022-12-23T11:53:36.614Z,11.80
2022-12-23T11:56:13.411Z,11.80
2022-12-23T11:58:46.605Z,11.90
2022-12-23T12:01:20.156Z,11.90
2022-12-23T12:03:54.031Z,11.90
2022-12-23T12:06:21.304Z,12.00
2022-12-23T12:08:50.330Z,12.00
2022-12-23T12:11:19.091Z,12.00
2022-12-23T12:13:48.861Z,12.00
2022-12-23T12:16:31.327Z,12.00
2022-12-23T12:19:11.295Z,12.00
2022-12-23T12:21:38.837Z,12.00
2022-12-23T12:24:21.683Z,11.90
2022-12-23T12:26:53.532Z,11.90
2022-12-23T12:29:36.649Z,11.90
2022-12-23T12:32:04.068Z,11.90
2022-12-23T12:34:57.069Z,11.90
2022-12-23T12:37:29.792Z,11.80
2022-12-23T12:40:12.472Z,11.70
2022-12-23T12:42:44.503Z,11.70
2022-12-23T12:45:46.004Z,11.70
2022-12-23T12:48:28.193Z,11.60
2022-12-23T12:51:03.155Z,11.50
2022-12-23T12:53:30.433Z,11.50
2022-12-23T12:56:05.120Z,11.50
2022-12-23T12:58:32.303Z,11.40
2022-12-23T13:01:27.815Z,11.40
2022-12-23T13:04:13.666Z,11.30
2022-12-23T13:06:58.804Z,11.30
2022-12-23T13:09:42.976Z,11.20
2022-12-23T13:12:22.995Z,11.10
2022-12-23T13:15:12.228Z,11.10
2022-12-23T13:18:08.032Z,11.00
2022-12-23T13:20:41.725Z,11.00
2022-12-23T13:26:23.883Z,11.00
2022-12-23T13:29:00.570Z,11.00
2022-12-23T13:31:38.163Z,10.90
2022-12-23T13:34:34.544Z,10.90
2022-12-23T13:37:25.872Z,10.90
2022-12-23T13:40:01.979Z,10.90
2022-12-23T13:42:34.340Z,10.90
2022-12-23T13:45:01.545Z,10.90
2022-12-23T13:47:44.025Z,10.80
2022-12-23T13:50:38.746Z,10.90
2022-12-23T13:53:35.008Z,10.80
2022-12-23T13:56:15.113Z,10.80
2022-12-23T13:58:42.370Z,10.70
2022-12-23T14:01:10.646Z,10.70
2022-12-23T14:03:38.742Z,10.70
2022-12-23T14:06:31.976Z,10.70
2022-12-23T14:08:59.213Z,10.70
2022-12-23T14:11:33.104Z,10.70
2022-12-23T14:14:04.344Z,10.70
2022-12-23T14:16:37.553Z,10.60
2022-12-23T14:19:32.443Z,10.60
2022-12-23T14:22:17.170Z,10.60
2022-12-23T14:25:22.607Z,10.50
2022-12-23T14:27:49.870Z,10.50
2022-12-23T14:30:34.688Z,10.50
2022-12-23T14:33:03.509Z,10.50
2022-12-23T14:35:40.356Z,10.50
2022-12-23T14:38:30.890Z,10.50
2022-12-23T14:41:24.903Z,10.40
2022-12-23T14:43:56.072Z,10.40
2022-12-23T14:46:35.676Z,10.50
2022-12-23T14:49:37.412Z,10.50
2022-12-23T14:51:50.895Z,10.50
2022-12-23T14:54:18.753Z,10.40
2022-12-23T14:57:00.461Z,10.40
2022-12-23T14:59:36.381Z,10.40
2022-12-23T15:02:34.169Z,10.40
2022-12-23T15:05:01.510Z,10.40
2022-12-23T15:07:40.557Z,10.40
2022-12-23T15:10:15.568Z,10.50
2022-12-23T15:12:43.784Z,10.40
2022-12-23T15:15:22.706Z,10.40
2022-12-23T15:18:00.228Z,10.30
2022-12-23T15:20:27.583Z,10.30
2022-12-23T15:22:59.900Z,10.30
2022-12-23T15:25:32.176Z,10.30
2022-12-23T15:28:02.163Z,10.30
2022-12-23T15:30:35.045Z,10.30
2022-12-23T15:33:03.832Z,10.30
2022-12-23T15:35:32.861Z,10.30
2022-12-23T15:38:00.591Z,10.30
2022-12-23T15:40:37.952Z,10.30
2022-12-23T15:43:23.968Z,10.30
2022-12-23T15:45:51.319Z,10.30
2022-12-23T15:48:25.884Z,10.40
2022-12-23T15:51:57.909Z,10.30
2022-12-23T15:54:27.206Z,10.40
2022-12-23T15:56:54.446Z,10.40
2022-12-23T15:59:29.412Z,10.30
2022-12-23T16:01:56.718Z,10.40
2022-12-23T16:04:28.183Z,10.40
2022-12-23T16:06:55.473Z,10.40
2022-12-23T16:09:25.979Z,10.40
2022-12-23T16:12:21.362Z,10.40
2022-12-23T16:14:56.287Z,10.40
2022-12-23T16:17:34.172Z,10.50
2022-12-23T16:20:19.958Z,10.40
2022-12-23T16:22:50.297Z,10.50
2022-12-23T16:25:21.194Z,10.50
2022-12-23T16:27:50.421Z,10.50
2022-12-23T16:30:20.203Z,10.50
2022-12-23T16:32:51.341Z,10.50
2022-12-23T16:35:40.646Z,10.50
2022-12-23T16:38:14.094Z,10.60
2022-12-23T16:40:41.794Z,10.70
2022-12-23T16:43:09.016Z,10.70
2022-12-23T16:45:36.423Z,10.70
2022-12-23T16:48:15.767Z,10.70
2022-12-23T16:50:42.962Z,10.80
2022-12-23T16:53:15.703Z,10.90
2022-12-23T16:55:50.221Z,10.90
2022-12-23T16:58:20.175Z,11.00
2022-12-23T17:00:47.375Z,11.00
2022-12-23T17:03:18.792Z,11.10
2022-12-23T17:05:46.927Z,11.10
2022-12-23T17:08:14.300Z,11.10
2022-12-23T17:10:41.585Z,11.20
2022-12-23T17:13:13.141Z,11.20
2022-12-23T17:15:40.326Z,11.20
2022-12-23T17:18:12.575Z,11.10
2022-12-23T17:20:40.501Z,11.20
2022-12-23T17:23:09.107Z,11.20
2022-12-23T17:25:36.349Z,11.20
2022-12-23T17:28:06.033Z,11.20
2022-12-23T17:30:33.459Z,11.30
2022-12-23T17:33:00.671Z,11.20
2022-12-23T17:35:27.868Z,11.30
2022-12-23T17:37:55.045Z,11.30
2022-12-23T17:40:22.299Z,11.30
2022-12-23T17:42:49.560Z,11.20
2022-12-23T17:45:25.208Z,11.10
2022-12-23T17:47:52.519Z,11.10
2022-12-23T17:50:20.685Z,11.10
2022-12-23T17:52:47.945Z,11.00
2022-12-23T17:55:23.081Z,11.00
2022-12-23T17:57:50.492Z,11.10
2022-12-23T18:00:26.530Z,11.10
2022-12-23T18:02:58.853Z,11.10
2022-12-23T18:05:26.916Z,11.20
2022-12-23T18:07:54.806Z,11.20
2022-12-23T18:10:23.861Z,11.20
2022-12-23T18:12:56.059Z,11.20
2022-12-23T18:15:24.856Z,11.20
2022-12-23T18:17:52.428Z,11.30
2022-12-23T18:20:21.848Z,11.30
2022-12-23T18:22:50.567Z,11.30
2022-12-23T18:25:23.212Z,11.30
2022-12-23T18:27:51.207Z,11.40
2022-12-23T18:30:18.571Z,11.40
2022-12-23T18:32:45.920Z,11.30
2022-12-23T18:35:26.506Z,11.30
2022-12-23T18:37:53.886Z,11.30
2022-12-23T18:40:21.370Z,11.30
2022-12-23T18:42:48.593Z,11.30
2022-12-23T18:45:26.495Z,11.30
2022-12-23T18:47:53.899Z,11.30
2022-12-23T18:50:21.197Z,11.30
2022-12-23T18:52:48.649Z,11.30
2022-12-23T18:55:15.868Z,11.40
2022-12-23T18:57:43.067Z,11.40
2022-12-23T19:00:18.735Z,11.40
2022-12-23T19:02:46.126Z,11.40
2022-12-23T19:05:24.174Z,11.50
2022-12-23T19:07:51.909Z,11.50
2022-12-23T19:10:24.322Z,11.50
2022-12-23T19:12:51.600Z,11.50
2022-12-23T19:15:19.256Z,11.50
2022-12-23T19:17:46.676Z,11.50
2022-12-23T19:20:14.912Z,11.50
2022-12-23T19:22:42.113Z,11.50
2022-12-23T19:25:10.191Z,11.50
2022-12-23T19:27:38.989Z,11.50
2022-12-23T19:30:07.541Z,11.60
2022-12-23T19:32:34.801Z,11.60
2022-12-23T19:35:02.127Z,11.60
2022-12-23T19:37:29.310Z,11.60
2022-12-23T19:39:56.494Z,11.60
2022-12-23T19:42:23.678Z,11.60
2022-12-23T19:44:50.904Z,11.70
2022-12-23T19:47:18.101Z,11.70
2022-12-23T19:49:45.292Z,11.70
2022-12-23T19:52:12.477Z,11.70
2022-12-23T19:54:39.676Z,11.70
2022-12-23T19:57:06.928Z,11.80
2022-12-23T19:59:34.120Z,11.80
2022-12-23T20:02:01.368Z,11.80
2022-12-23T20:04:28.660Z,11.80
2022-12-23T20:06:55.876Z,11.80
2022-12-23T20:09:23.205Z,11.80
2022-12-23T20:11:50.457Z,11.80
2022-12-23T20:14:18.315Z,11.90
2022-12-23T20:16:45.549Z,11.90
2022-12-23T20:19:12.772Z,11.80
2022-12-23T20:21:40.081Z,11.90
2022-12-23T20:24:07.600Z,11.90
2022-12-23T20:26:34.766Z,11.90
2022-12-23T20:29:01.984Z,11.90
2022-12-23T20:31:30.714Z,11.90
2022-12-23T20:33:58.218Z,11.90
2022-12-23T20:36:27.279Z,11.90
2022-12-23T20:38:54.684Z,11.90
2022-12-23T20:41:23.449Z,11.90
2022-12-23T20:44:23.435Z,11.90
2022-12-23T20:46:38.017Z,11.90
2022-12-23T20:49:05.379Z,11.70
2022-12-23T20:51:32.706Z,11.70
2022-12-23T20:54:00.831Z,11.60
2022-12-23T20:56:29.324Z,11.50
2022-12-23T20:59:02.466Z,11.50
2022-12-23T21:01:31.596Z,11.40
2022-12-23T21:04:00.151Z,11.30
2022-12-23T21:06:27.817Z,11.20
2022-12-23T21:08:56.416Z,11.30
2022-12-23T21:11:23.727Z,11.20
2022-12-23T21:13:51.076Z,11.20
2022-12-23T21:16:18.654Z,11.20
2022-12-23T21:18:50.415Z,11.30
2022-12-23T21:21:17.718Z,11.30
2022-12-23T21:23:45.364Z,11.00
2022-12-23T21:26:20.145Z,10.70
2022-12-23T21:28:47.783Z,10.30
2022-12-23T21:31:16.122Z,10.00
2022-12-23T21:33:44.069Z,9.80
2022-12-23T21:36:17.887Z,9.70
2022-12-23T21:38:47.851Z,9.70
2022-12-23T21:41:20.126Z,9.70
2022-12-23T21:43:47.824Z,9.70
2022-12-23T21:46:16.343Z,9.70
2022-12-23T21:48:44.384Z,9.60
2022-12-23T21:51:15.899Z,9.70
2022-12-23T21:53:43.846Z,9.70
2022-12-23T21:56:13.360Z,9.70
2022-12-23T21:58:40.835Z,9.70
2022-12-23T22:01:15.466Z,9.70
2022-12-23T22:03:43.630Z,9.70
2022-12-23T22:06:12.850Z,9.90
2022-12-23T22:08:40.064Z,9.90
2022-12-23T22:11:12.392Z,10.20
2022-12-23T22:13:40.126Z,10.40
2022-12-23T22:16:11.844Z,10.60
2022-12-23T22:18:39.266Z,10.70
2022-12-23T22:21:07.982Z,10.90
2022-12-23T22:23:35.888Z,10.90
2022-12-23T22:26:03.389Z,10.90
2022-12-23T22:28:31.770Z,10.80
2022-12-23T22:31:03.689Z,10.80
2022-12-23T22:33:31.721Z,10.80
2022-12-23T22:35:59.002Z,10.80
2022-12-23T22:38:26.551Z,10.80
2022-12-23T22:40:53.961Z,10.80
2022-12-23T22:43:21.175Z,10.80
2022-12-23T22:45:57.146Z,10.70
2022-12-23T22:48:24.985Z,10.70
2022-12-23T22:50:53.710Z,10.70
2022-12-23T22:53:24.921Z,10.70
2022-12-23T22:55:58.122Z,10.60
2022-12-23T22:58:25.670Z,10.60
2022-12-23T23:00:52.947Z,10.60
2022-12-23T23:03:20.287Z,10.60
2022-12-23T23:06:04.644Z,10.50
2022-12-23T23:08:31.898Z,10.50
2022-12-23T23:11:00.211Z,10.50
2022-12-23T23:13:29.123Z,10.50
2022-12-23T23:15:56.499Z,10.50
2022-12-23T23:18:23.809Z,10.40
2022-12-23T23:20:51.031Z,10.40
2022-12-23T23:23:18.291Z,10.40
2022-12-23T23:25:45.646Z,10.40
2022-12-23T23:28:13.446Z,10.30
2022-12-23T23:30:40.741Z,10.20
2022-12-23T23:33:08.096Z,10.20
2022-12-23T23:35:35.633Z,10.30
2022-12-23T23:38:02.852Z,10.20
2022-12-23T23:40:30.077Z,10.20
2022-12-23T23:42:57.260Z,10.30
2022-12-23T23:45:24.568Z,10.30
2022-12-23T23:47:51.769Z,10.30
2022-12-23T23:50:19.062Z,10.40
2022-12-23T23:52:46.234Z,10.40
2022-12-23T23:55:13.477Z,10.40
2022-12-23T23:57:40.677Z,10.40
